sensor_id;sensor_type;location;lat;lon;timestamp;pressure;altitude;pressure_sealevel;temperature;humidity
21760;BME280;11041;50.854;20.580;2023-02-08T00:02:00;101233.75;;;-2.25;89.64
21760;BME280;11041;50.854;20.580;2023-02-08T00:04:27;101235.09;;;-2.21;89.30
21760;BME280;11041;50.854;20.580;2023-02-08T00:06:53;101236.09;;;-2.22;88.65
21760;BME280;11041;50.854;20.580;2023-02-08T00:09:20;101230.38;;;-2.19;89.47
21760;BME280;11041;50.854;20.580;2023-02-08T00:11:46;101234.41;;;-2.15;89.00
21760;BME280;11041;50.854;20.580;2023-02-08T00:14:13;101230.03;;;-2.16;89.00
21760;BME280;11041;50.854;20.580;2023-02-08T00:16:40;101235.41;;;-2.08;88.67
21760;BME280;11041;50.854;20.580;2023-02-08T00:19:06;101235.91;;;-2.12;87.77
21760;BME280;11041;50.854;20.580;2023-02-08T00:21:33;101243.84;;;-2.11;87.79
21760;BME280;11041;50.854;20.580;2023-02-08T00:23:59;101247.53;;;-2.12;88.06
21760;BME280;11041;50.854;20.580;2023-02-08T00:26:26;101244.34;;;-2.16;88.04
21760;BME280;11041;50.854;20.580;2023-02-08T00:28:53;101251.59;;;-2.16;87.89
21760;BME280;11041;50.854;20.580;2023-02-08T00:31:19;101249.72;;;-2.24;87.97
21760;BME280;11041;50.854;20.580;2023-02-08T00:33:46;101242.66;;;-2.25;88.69
21760;BME280;11041;50.854;20.580;2023-02-08T00:36:12;101259.50;;;-2.23;88.11
21760;BME280;11041;50.854;20.580;2023-02-08T00:38:39;101250.75;;;-2.25;88.53
21760;BME280;11041;50.854;20.580;2023-02-08T00:41:05;101247.72;;;-2.22;88.81
21760;BME280;11041;50.854;20.580;2023-02-08T00:43:32;101245.00;;;-2.22;88.58
21760;BME280;11041;50.854;20.580;2023-02-08T00:45:59;101247.56;;;-2.20;88.95
21760;BME280;11041;50.854;20.580;2023-02-08T00:48:27;101252.44;;;-2.16;89.13
21760;BME280;11041;50.854;20.580;2023-02-08T00:51:00;101252.59;;;-2.17;89.07
21760;BME280;11041;50.854;20.580;2023-02-08T00:53:27;101242.84;;;-2.18;88.41
21760;BME280;11041;50.854;20.580;2023-02-08T00:55:54;101261.34;;;-2.15;89.06
21760;BME280;11041;50.854;20.580;2023-02-08T00:58:22;101262.84;;;-2.12;89.28
21760;BME280;11041;50.854;20.580;2023-02-08T01:00:52;101264.19;;;-2.08;88.83
21760;BME280;11041;50.854;20.580;2023-02-08T01:03:21;101258.31;;;-2.12;89.08
21760;BME280;11041;50.854;20.580;2023-02-08T01:05:48;101257.94;;;-2.01;89.25
21760;BME280;11041;50.854;20.580;2023-02-08T01:08:16;101261.16;;;-2.05;88.32
21760;BME280;11041;50.854;20.580;2023-02-08T01:10:45;101253.94;;;-2.13;88.50
21760;BME280;11041;50.854;20.580;2023-02-08T01:13:12;101260.50;;;-2.07;89.54
21760;BME280;11041;50.854;20.580;2023-02-08T01:15:38;101262.19;;;-2.06;89.22
21760;BME280;11041;50.854;20.580;2023-02-08T01:18:05;101253.44;;;-2.08;89.79
21760;BME280;11041;50.854;20.580;2023-02-08T01:20:35;101260.50;;;-2.07;89.17
21760;BME280;11041;50.854;20.580;2023-02-08T01:23:03;101254.78;;;-2.04;89.56
21760;BME280;11041;50.854;20.580;2023-02-08T01:25:29;101263.03;;;-2.06;89.93
21760;BME280;11041;50.854;20.580;2023-02-08T01:27:56;101252.59;;;-2.25;89.73
21760;BME280;11041;50.854;20.580;2023-02-08T01:30:23;101253.78;;;-2.28;90.26
21760;BME280;11041;50.854;20.580;2023-02-08T01:32:49;101255.81;;;-2.38;90.65
21760;BME280;11041;50.854;20.580;2023-02-08T01:35:16;101248.75;;;-2.47;91.15
21760;BME280;11041;50.854;20.580;2023-02-08T01:37:42;101252.09;;;-2.53;91.35
21760;BME280;11041;50.854;20.580;2023-02-08T01:40:09;101254.97;;;-2.47;91.75
21760;BME280;11041;50.854;20.580;2023-02-08T01:42:36;101260.69;;;-2.42;91.56
21760;BME280;11041;50.854;20.580;2023-02-08T01:45:24;101267.56;;;-2.31;92.06
21760;BME280;11041;50.854;20.580;2023-02-08T01:47:59;101268.41;;;-2.22;91.70
21760;BME280;11041;50.854;20.580;2023-02-08T01:50:35;101275.50;;;-2.13;91.67
21760;BME280;11041;50.854;20.580;2023-02-08T01:53:04;101260.34;;;-2.14;91.47
21760;BME280;11041;50.854;20.580;2023-02-08T01:55:35;101264.69;;;-2.05;91.06
21760;BME280;11041;50.854;20.580;2023-02-08T01:58:09;101261.00;;;-2.04;91.44
21760;BME280;11041;50.854;20.580;2023-02-08T02:00:37;101271.06;;;-1.98;90.96
21760;BME280;11041;50.854;20.580;2023-02-08T02:03:05;101271.06;;;-1.98;91.15
21760;BME280;11041;50.854;20.580;2023-02-08T02:06:02;101273.59;;;-1.96;91.17
21760;BME280;11041;50.854;20.580;2023-02-08T02:08:32;101270.41;;;-1.91;91.34
21760;BME280;11041;50.854;20.580;2023-02-08T02:10:59;101266.53;;;-1.89;90.97
21760;BME280;11041;50.854;20.580;2023-02-08T02:13:27;101263.66;;;-1.87;90.83
21760;BME280;11041;50.854;20.580;2023-02-08T02:15:54;101264.00;;;-1.82;91.16
21760;BME280;11041;50.854;20.580;2023-02-08T02:18:29;101270.69;;;-1.78;90.55
21760;BME280;11041;50.854;20.580;2023-02-08T02:30:05;101271.59;;;-1.94;90.74
21760;BME280;11041;50.854;20.580;2023-02-08T02:42:27;101283.38;;;-2.03;91.83
21760;BME280;11041;50.854;20.580;2023-02-08T02:45:45;101278.84;;;-2.11;91.93
21760;BME280;11041;50.854;20.580;2023-02-08T02:48:25;101284.41;;;-2.12;92.33
21760;BME280;11041;50.854;20.580;2023-02-08T02:56:40;101286.59;;;-2.24;92.92
21760;BME280;11041;50.854;20.580;2023-02-08T02:59:11;101287.97;;;-2.28;92.56
21760;BME280;11041;50.854;20.580;2023-02-08T03:01:41;101292.19;;;-2.26;93.27
21760;BME280;11041;50.854;20.580;2023-02-08T03:13:16;101312.19;;;-2.04;93.76
21760;BME280;11041;50.854;20.580;2023-02-08T03:16:19;101310.81;;;-1.91;93.06
21760;BME280;11041;50.854;20.580;2023-02-08T03:21:42;101311.13;;;-1.78;93.02
21760;BME280;11041;50.854;20.580;2023-02-08T03:30:23;101296.28;;;-1.74;92.36
21760;BME280;11041;50.854;20.580;2023-02-08T03:33:21;101305.38;;;-1.67;92.31
21760;BME280;11041;50.854;20.580;2023-02-08T03:36:05;101305.03;;;-1.64;92.33
21760;BME280;11041;50.854;20.580;2023-02-08T03:38:41;101301.69;;;-1.66;91.73
21760;BME280;11041;50.854;20.580;2023-02-08T03:41:15;101315.28;;;-1.59;91.60
21760;BME280;11041;50.854;20.580;2023-02-08T03:43:55;101311.94;;;-1.61;92.05
21760;BME280;11041;50.854;20.580;2023-02-08T03:46:30;101312.78;;;-1.61;92.16
21760;BME280;11041;50.854;20.580;2023-02-08T03:49:07;101328.47;;;-1.56;92.04
21760;BME280;11041;50.854;20.580;2023-02-08T03:51:38;101312.13;;;-1.63;91.98
21760;BME280;11041;50.854;20.580;2023-02-08T03:54:19;101315.50;;;-1.61;92.27
21760;BME280;11041;50.854;20.580;2023-02-08T03:57:12;101317.84;;;-1.58;91.85
21760;BME280;11041;50.854;20.580;2023-02-08T03:59:46;101319.69;;;-1.58;91.84
21760;BME280;11041;50.854;20.580;2023-02-08T04:02:20;101321.88;;;-1.54;91.87
21760;BME280;11041;50.854;20.580;2023-02-08T04:04:49;101315.97;;;-1.57;91.62
21760;BME280;11041;50.854;20.580;2023-02-08T04:07:18;101315.13;;;-1.58;91.71
21760;BME280;11041;50.854;20.580;2023-02-08T04:09:45;101316.81;;;-1.57;91.51
21760;BME280;11041;50.854;20.580;2023-02-08T04:12:12;101323.06;;;-1.56;91.53
21760;BME280;11041;50.854;20.580;2023-02-08T04:14:38;101320.22;;;-1.63;91.26
21760;BME280;11041;50.854;20.580;2023-02-08T04:17:05;101320.88;;;-1.61;91.48
21760;BME280;11041;50.854;20.580;2023-02-08T04:19:32;101326.28;;;-1.61;91.78
21760;BME280;11041;50.854;20.580;2023-02-08T04:21:58;101332.16;;;-1.57;92.02
21760;BME280;11041;50.854;20.580;2023-02-08T04:24:25;101314.81;;;-1.63;91.31
21760;BME280;11041;50.854;20.580;2023-02-08T04:26:51;101325.25;;;-1.60;91.64
21760;BME280;11041;50.854;20.580;2023-02-08T04:29:18;101326.94;;;-1.59;90.95
21760;BME280;11041;50.854;20.580;2023-02-08T04:31:44;101330.47;;;-1.58;91.22
21760;BME280;11041;50.854;20.580;2023-02-08T04:34:11;101338.53;;;-1.50;91.23
21760;BME280;11041;50.854;20.580;2023-02-08T04:36:37;101332.66;;;-1.54;91.03
21760;BME280;11041;50.854;20.580;2023-02-08T04:39:03;101337.19;;;-1.54;90.80
21760;BME280;11041;50.854;20.580;2023-02-08T04:41:30;101338.06;;;-1.54;91.26
21760;BME280;11041;50.854;20.580;2023-02-08T04:43:56;101343.44;;;-1.54;91.18
21760;BME280;11041;50.854;20.580;2023-02-08T04:46:23;101344.75;;;-1.50;91.06
21760;BME280;11041;50.854;20.580;2023-02-08T04:48:49;101345.13;;;-1.53;91.00
21760;BME280;11041;50.854;20.580;2023-02-08T04:51:16;101350.50;;;-1.53;90.95
21760;BME280;11041;50.854;20.580;2023-02-08T04:53:43;101348.16;;;-1.56;91.29
21760;BME280;11041;50.854;20.580;2023-02-08T04:56:09;101360.09;;;-1.50;90.68
21760;BME280;11041;50.854;20.580;2023-02-08T04:58:36;101359.28;;;-1.51;90.97
21760;BME280;11041;50.854;20.580;2023-02-08T05:01:07;101356.94;;;-1.54;90.64
21760;BME280;11041;50.854;20.580;2023-02-08T05:03:36;101361.97;;;-1.51;91.02
21760;BME280;11041;50.854;20.580;2023-02-08T05:06:03;101361.28;;;-1.53;90.07
21760;BME280;11041;50.854;20.580;2023-02-08T05:08:29;101342.44;;;-1.69;90.00
21760;BME280;11041;50.854;20.580;2023-02-08T05:10:56;101362.16;;;-1.68;90.53
21760;BME280;11041;50.854;20.580;2023-02-08T05:13:23;101349.22;;;-1.73;91.28
21760;BME280;11041;50.854;20.580;2023-02-08T05:15:49;101355.75;;;-1.67;90.87
21760;BME280;11041;50.854;20.580;2023-02-08T05:18:16;101358.63;;;-1.69;91.32
21760;BME280;11041;50.854;20.580;2023-02-08T05:20:42;101361.00;;;-1.66;90.65
21760;BME280;11041;50.854;20.580;2023-02-08T05:23:10;101366.38;;;-1.66;90.58
21760;BME280;11041;50.854;20.580;2023-02-08T05:25:39;101362.16;;;-1.68;91.12
21760;BME280;11041;50.854;20.580;2023-02-08T05:28:07;101357.28;;;-1.81;90.29
21760;BME280;11041;50.854;20.580;2023-02-08T05:30:33;101362.19;;;-1.85;90.25
21760;BME280;11041;50.854;20.580;2023-02-08T05:33:00;101365.06;;;-1.86;90.72
21760;BME280;11041;50.854;20.580;2023-02-08T05:35:27;101362.19;;;-1.85;91.50
21760;BME280;11041;50.854;20.580;2023-02-08T05:37:53;101355.94;;;-1.85;91.25
21760;BME280;11041;50.854;20.580;2023-02-08T05:40:19;101369.44;;;-1.77;91.07
21760;BME280;11041;50.854;20.580;2023-02-08T05:42:47;101362.34;;;-1.78;91.03
21760;BME280;11041;50.854;20.580;2023-02-08T05:45:15;101362.34;;;-1.86;90.86
21760;BME280;11041;50.854;20.580;2023-02-08T05:47:42;101365.41;;;-1.89;90.94
21760;BME280;11041;50.854;20.580;2023-02-08T05:50:09;101365.41;;;-1.89;91.16
21760;BME280;11041;50.854;20.580;2023-02-08T05:52:35;101364.72;;;-1.91;91.12
21760;BME280;11041;50.854;20.580;2023-02-08T05:55:02;101368.41;;;-1.84;91.21
21760;BME280;11041;50.854;20.580;2023-02-08T05:57:29;101365.72;;;-1.93;91.04
21760;BME280;11041;50.854;20.580;2023-02-08T05:59:55;101353.78;;;-2.06;90.57
21760;BME280;11041;50.854;20.580;2023-02-08T06:02:22;101366.91;;;-2.03;91.15
21760;BME280;11041;50.854;20.580;2023-02-08T06:04:49;101359.19;;;-2.06;91.01
21760;BME280;11041;50.854;20.580;2023-02-08T06:07:15;101362.53;;;-2.04;91.03
21760;BME280;11041;50.854;20.580;2023-02-08T06:09:42;101359.69;;;-2.11;90.43
21760;BME280;11041;50.854;20.580;2023-02-08T06:12:09;101378.53;;;-2.11;90.00
21760;BME280;11041;50.854;20.580;2023-02-08T06:14:35;101376.34;;;-2.16;89.89
21760;BME280;11041;50.854;20.580;2023-02-08T06:17:02;101386.78;;;-2.21;90.08
21760;BME280;11041;50.854;20.580;2023-02-08T06:19:28;101373.47;;;-2.30;89.48
21760;BME280;11041;50.854;20.580;2023-02-08T06:21:54;101389.94;;;-2.33;89.73
21760;BME280;11041;50.854;20.580;2023-02-08T06:24:21;101395.47;;;-2.43;89.22
21760;BME280;11041;50.854;20.580;2023-02-08T06:26:48;101383.19;;;-2.54;88.96
21760;BME280;11041;50.854;20.580;2023-02-08T06:29:14;101408.09;;;-2.52;89.75
21760;BME280;11041;50.854;20.580;2023-02-08T06:31:41;101400.84;;;-2.60;89.81
21760;BME280;11041;50.854;20.580;2023-02-08T06:34:07;101410.44;;;-2.57;89.71
21760;BME280;11041;50.854;20.580;2023-02-08T06:36:34;101409.41;;;-2.56;90.29
21760;BME280;11041;50.854;20.580;2023-02-08T06:39:00;101416.16;;;-2.52;90.45
21760;BME280;11041;50.854;20.580;2023-02-08T06:41:28;101417.69;;;-2.41;91.70
21760;BME280;11041;50.854;20.580;2023-02-08T06:43:56;101415.88;;;-2.32;91.15
21760;BME280;11041;50.854;20.580;2023-02-08T06:46:24;101418.38;;;-2.31;90.45
21760;BME280;11041;50.854;20.580;2023-02-08T06:48:51;101412.16;;;-2.40;89.84
21760;BME280;11041;50.854;20.580;2023-02-08T06:51:17;101411.81;;;-2.45;90.60
21760;BME280;11041;50.854;20.580;2023-02-08T06:53:44;101418.03;;;-2.44;90.69
21760;BME280;11041;50.854;20.580;2023-02-08T06:56:11;101420.09;;;-2.38;91.41
21760;BME280;11041;50.854;20.580;2023-02-08T06:58:37;101418.53;;;-2.41;90.59
21760;BME280;11041;50.854;20.580;2023-02-08T07:01:15;101428.31;;;-2.31;90.92
21760;BME280;11041;50.854;20.580;2023-02-08T07:03:52;101430.38;;;-2.25;91.06
21760;BME280;11041;50.854;20.580;2023-02-08T07:06:19;101427.00;;;-2.27;90.92
21760;BME280;11041;50.854;20.580;2023-02-08T07:08:46;101426.50;;;-2.23;90.82
21760;BME280;11041;50.854;20.580;2023-02-08T07:11:17;101423.13;;;-2.17;90.44
21760;BME280;11041;50.854;20.580;2023-02-08T07:13:50;101432.75;;;-2.14;90.78
21760;BME280;11041;50.854;20.580;2023-02-08T07:16:19;101430.56;;;-2.10;90.38
21760;BME280;11041;50.854;20.580;2023-02-08T07:18:45;101425.66;;;-2.07;91.04
21760;BME280;11041;50.854;20.580;2023-02-08T07:21:12;101438.13;;;-1.98;90.61
21760;BME280;11041;50.854;20.580;2023-02-08T07:23:39;101448.59;;;-1.95;90.20
21760;BME280;11041;50.854;20.580;2023-02-08T07:26:10;101441.19;;;-2.01;89.67
21760;BME280;11041;50.854;20.580;2023-02-08T07:28:38;101442.84;;;-2.08;90.17
21760;BME280;11041;50.854;20.580;2023-02-08T07:31:11;101449.41;;;-2.02;90.81
21760;BME280;11041;50.854;20.580;2023-02-08T07:33:38;101446.91;;;-1.96;90.68
21760;BME280;11041;50.854;20.580;2023-02-08T07:36:07;101454.16;;;-1.88;91.15
21760;BME280;11041;50.854;20.580;2023-02-08T07:38:35;101446.59;;;-1.84;91.08
21760;BME280;11041;50.854;20.580;2023-02-08T07:41:09;101447.25;;;-1.74;91.13
21760;BME280;11041;50.854;20.580;2023-02-08T07:43:38;101456.53;;;-1.60;90.58
21760;BME280;11041;50.854;20.580;2023-02-08T07:46:08;101455.34;;;-1.58;90.24
21760;BME280;11041;50.854;20.580;2023-02-08T07:48:35;101463.09;;;-1.46;90.76
21760;BME280;11041;50.854;20.580;2023-02-08T07:51:03;101472.84;;;-1.37;90.52
21760;BME280;11041;50.854;20.580;2023-02-08T07:53:31;101460.53;;;-1.32;90.28
21760;BME280;11041;50.854;20.580;2023-02-08T07:55:57;101462.38;;;-1.24;89.29
21760;BME280;11041;50.854;20.580;2023-02-08T07:58:25;101470.66;;;-1.17;89.22
21760;BME280;11041;50.854;20.580;2023-02-08T08:00:52;101472.31;;;-1.16;88.87
21760;BME280;11041;50.854;20.580;2023-02-08T08:03:18;101471.13;;;-1.14;88.35
21760;BME280;11041;50.854;20.580;2023-02-08T08:05:45;101473.31;;;-1.09;88.03
21760;BME280;11041;50.854;20.580;2023-02-08T08:08:12;101473.50;;;-1.11;87.45
21760;BME280;11041;50.854;20.580;2023-02-08T08:10:39;101476.53;;;-1.05;87.30
21760;BME280;11041;50.854;20.580;2023-02-08T08:13:06;101478.88;;;-1.02;87.86
21760;BME280;11041;50.854;20.580;2023-02-08T08:15:32;101473.78;;;-0.97;87.85
21760;BME280;11041;50.854;20.580;2023-02-08T08:17:58;101482.38;;;-0.86;87.77
21760;BME280;11041;50.854;20.580;2023-02-08T08:20:26;101491.81;;;-0.81;87.24
21760;BME280;11041;50.854;20.580;2023-02-08T08:22:52;101497.03;;;-0.80;87.25
21760;BME280;11041;50.854;20.580;2023-02-08T08:25:19;101502.94;;;-0.76;87.16
21760;BME280;11041;50.854;20.580;2023-02-08T08:27:46;101489.59;;;-0.70;86.81
21760;BME280;11041;50.854;20.580;2023-02-08T08:30:15;101489.59;;;-0.70;86.85
21760;BME280;11041;50.854;20.580;2023-02-08T08:32:41;101502.03;;;-0.60;86.45
21760;BME280;11041;50.854;20.580;2023-02-08T08:35:09;101496.97;;;-0.63;86.53
21760;BME280;11041;50.854;20.580;2023-02-08T08:37:36;101499.50;;;-0.62;86.40
21760;BME280;11041;50.854;20.580;2023-02-08T08:40:05;101510.47;;;-0.55;86.09
21760;BME280;11041;50.854;20.580;2023-02-08T08:42:33;101515.00;;;-0.56;86.14
21760;BME280;11041;50.854;20.580;2023-02-08T08:45:02;101515.88;;;-0.55;85.75
21760;BME280;11041;50.854;20.580;2023-02-08T08:47:29;101515.53;;;-0.60;85.60
21760;BME280;11041;50.854;20.580;2023-02-08T08:49:56;101516.56;;;-0.61;85.44
21760;BME280;11041;50.854;20.580;2023-02-08T08:52:22;101526.47;;;-0.54;85.58
21760;BME280;11041;50.854;20.580;2023-02-08T08:54:49;101517.91;;;-0.57;85.49
21760;BME280;11041;50.854;20.580;2023-02-08T08:57:16;101523.25;;;-0.49;85.60
21760;BME280;11041;50.854;20.580;2023-02-08T08:59:43;101502.84;;;-0.52;85.56
21760;BME280;11041;50.854;20.580;2023-02-08T09:02:13;101515.31;;;-0.43;85.29
21760;BME280;11041;50.854;20.580;2023-02-08T09:04:41;101523.88;;;-0.39;84.43
21760;BME280;11041;50.854;20.580;2023-02-08T09:07:08;101521.91;;;-0.45;83.79
21760;BME280;11041;50.854;20.580;2023-02-08T09:09:35;101535.22;;;-0.44;82.83
21760;BME280;11041;50.854;20.580;2023-02-08T09:12:03;101521.91;;;-0.45;83.00
21760;BME280;11041;50.854;20.580;2023-02-08T09:14:30;101524.91;;;-0.40;82.90
21760;BME280;11041;50.854;20.580;2023-02-08T09:16:56;101518.16;;;-0.44;81.77
21760;BME280;11041;50.854;20.580;2023-02-08T09:19:23;101535.38;;;-0.37;80.87
21760;BME280;11041;50.854;20.580;2023-02-08T09:21:50;101529.44;;;-0.32;80.47
21760;BME280;11041;50.854;20.580;2023-02-08T09:24:17;101529.06;;;-0.29;81.25
21760;BME280;11041;50.854;20.580;2023-02-08T09:26:44;101530.25;;;-0.24;79.38
21760;BME280;11041;50.854;20.580;2023-02-08T09:29:11;101543.72;;;-0.15;79.44
21760;BME280;11041;50.854;20.580;2023-02-08T09:31:37;101538.47;;;-0.17;78.76
21760;BME280;11041;50.854;20.580;2023-02-08T09:34:05;101539.66;;;-0.19;78.36
21760;BME280;11041;50.854;20.580;2023-02-08T09:36:36;101521.63;;;-0.27;78.07
21760;BME280;11041;50.854;20.580;2023-02-08T09:39:21;101536.50;;;-0.23;78.06
21760;BME280;11041;50.854;20.580;2023-02-08T09:45:45;101542.59;;;-0.29;77.46
21760;BME280;11041;50.854;20.580;2023-02-08T09:48:33;101525.22;;;-0.35;78.24
21760;BME280;11041;50.854;20.580;2023-02-08T09:54:14;101540.75;;;-0.29;77.54
21760;BME280;11041;50.854;20.580;2023-02-08T09:56:42;101539.56;;;-0.26;77.81
21760;BME280;11041;50.854;20.580;2023-02-08T09:59:26;101533.25;;;-0.18;77.84
21760;BME280;11041;50.854;20.580;2023-02-08T10:05:07;101526.22;;;0.04;77.17
21760;BME280;11041;50.854;20.580;2023-02-08T10:07:36;101528.69;;;0.13;77.00
21760;BME280;11041;50.854;20.580;2023-02-08T10:10:07;101532.72;;;0.17;74.72
21760;BME280;11041;50.854;20.580;2023-02-08T10:18:45;101532.25;;;0.37;73.55
21760;BME280;11041;50.854;20.580;2023-02-08T10:30:41;101519.50;;;0.23;72.06
21760;BME280;11041;50.854;20.580;2023-02-08T10:36:12;101518.53;;;0.15;71.20
21760;BME280;11041;50.854;20.580;2023-02-08T10:38:40;101514.63;;;0.18;71.50
21760;BME280;11041;50.854;20.580;2023-02-08T10:41:14;101506.75;;;0.08;69.91
21760;BME280;11041;50.854;20.580;2023-02-08T10:49:13;101502.16;;;0.17;70.83
21760;BME280;11041;50.854;20.580;2023-02-08T10:51:44;101521.00;;;0.25;70.20
21760;BME280;11041;50.854;20.580;2023-02-08T10:54:15;101511.41;;;0.23;70.26
21760;BME280;11041;50.854;20.580;2023-02-08T10:56:55;101519.34;;;0.24;70.76
21760;BME280;11041;50.854;20.580;2023-02-08T10:59:50;101506.00;;;0.23;71.36
21760;BME280;11041;50.854;20.580;2023-02-08T11:02:26;101521.63;;;0.35;71.70
21760;BME280;11041;50.854;20.580;2023-02-08T11:05:07;101516.19;;;0.35;68.92
21760;BME280;11041;50.854;20.580;2023-02-08T11:07:35;101519.66;;;0.29;67.80
21760;BME280;11041;50.854;20.580;2023-02-08T11:13:16;101519.69;;;0.21;68.92
21760;BME280;11041;50.854;20.580;2023-02-08T11:15:55;101516.44;;;0.26;69.62
21760;BME280;11041;50.854;20.580;2023-02-08T11:18:53;101502.09;;;0.25;68.76
21760;BME280;11041;50.854;20.580;2023-02-08T11:21:31;101513.56;;;0.27;68.59
21760;BME280;11041;50.854;20.580;2023-02-08T11:24:26;101515.25;;;0.28;68.91
21760;BME280;11041;50.854;20.580;2023-02-08T11:26:53;101513.69;;;0.34;69.38
21760;BME280;11041;50.854;20.580;2023-02-08T11:29:29;101519.69;;;0.44;69.35
21760;BME280;11041;50.854;20.580;2023-02-08T11:32:02;101521.56;;;0.44;67.23
21760;BME280;11041;50.854;20.580;2023-02-08T11:34:37;101506.88;;;0.38;67.28
21760;BME280;11041;50.854;20.580;2023-02-08T11:37:19;101503.84;;;0.41;67.69
21760;BME280;11041;50.854;20.580;2023-02-08T11:39:56;101507.25;;;0.35;67.02
21760;BME280;11041;50.854;20.580;2023-02-08T11:42:34;101508.63;;;0.31;67.39
21760;BME280;11041;50.854;20.580;2023-02-08T11:45:03;101507.00;;;0.21;67.15
21760;BME280;11041;50.854;20.580;2023-02-08T11:47:34;101498.81;;;0.07;66.60
21760;BME280;11041;50.854;20.580;2023-02-08T11:50:06;101505.44;;;0.04;67.01
21760;BME280;11041;50.854;20.580;2023-02-08T11:52:40;101489.94;;;-0.02;67.16
21760;BME280;11041;50.854;20.580;2023-02-08T12:00:40;101475.38;;;-0.01;66.73
21760;BME280;11041;50.854;20.580;2023-02-08T12:03:15;101476.84;;;0.10;67.30
21760;BME280;11041;50.854;20.580;2023-02-08T12:09:36;101476.38;;;0.29;67.05
21760;BME280;11041;50.854;20.580;2023-02-08T12:20:46;101473.34;;;0.01;67.64
21760;BME280;11041;50.854;20.580;2023-02-08T12:26:08;101466.56;;;0.05;68.43
21760;BME280;11041;50.854;20.580;2023-02-08T12:31:55;101449.56;;;-0.04;67.10
21760;BME280;11041;50.854;20.580;2023-02-08T12:35:43;101441.75;;;-0.22;67.37
21760;BME280;11041;50.854;20.580;2023-02-08T12:37:49;101438.94;;;-0.36;68.20
21760;BME280;11041;50.854;20.580;2023-02-08T12:44:01;101438.09;;;-0.37;69.16
21760;BME280;11041;50.854;20.580;2023-02-08T12:46:50;101415.53;;;-0.44;69.16
21760;BME280;11041;50.854;20.580;2023-02-08T12:49:38;101408.25;;;-0.44;69.39
21760;BME280;11041;50.854;20.580;2023-02-08T12:52:24;101437.03;;;-0.28;69.17
21760;BME280;11041;50.854;20.580;2023-02-08T12:55:23;101446.97;;;-0.20;68.82
21760;BME280;11041;50.854;20.580;2023-02-08T12:58:20;101423.16;;;-0.25;66.96
21760;BME280;11041;50.854;20.580;2023-02-08T13:00:51;101418.72;;;-0.40;67.50
21760;BME280;11041;50.854;20.580;2023-02-08T13:03:52;101413.50;;;-0.42;68.32
21760;BME280;11041;50.854;20.580;2023-02-08T13:06:28;101412.78;;;-0.36;68.55
21760;BME280;11041;50.854;20.580;2023-02-08T13:09:12;101411.09;;;-0.37;67.29
21760;BME280;11041;50.854;20.580;2023-02-08T13:11:52;101428.13;;;-0.36;67.23
21760;BME280;11041;50.854;20.580;2023-02-08T13:14:37;101424.06;;;-0.32;67.66
21760;BME280;11041;50.854;20.580;2023-02-08T13:17:27;101422.88;;;-0.30;67.44
21760;BME280;11041;50.854;20.580;2023-02-08T13:20:06;101410.78;;;-0.42;67.22
21760;BME280;11041;50.854;20.580;2023-02-08T13:22:42;101421.06;;;-0.37;66.54
21760;BME280;11041;50.854;20.580;2023-02-08T13:25:29;101425.97;;;-0.41;67.14
21760;BME280;11041;50.854;20.580;2023-02-08T13:28:02;101413.00;;;-0.46;67.24
21760;BME280;11041;50.854;20.580;2023-02-08T13:30:32;101404.78;;;-0.52;67.64
21760;BME280;11041;50.854;20.580;2023-02-08T13:33:18;101413.84;;;-0.45;68.14
21760;BME280;11041;50.854;20.580;2023-02-08T13:35:52;101406.41;;;-0.43;67.95
21760;BME280;11041;50.854;20.580;2023-02-08T13:38:29;101402.38;;;-0.47;68.14
21760;BME280;11041;50.854;20.580;2023-02-08T13:41:19;101412.34;;;-0.48;68.13
21760;BME280;11041;50.854;20.580;2023-02-08T13:43:56;101399.19;;;-0.51;67.56
21760;BME280;11041;50.854;20.580;2023-02-08T13:46:26;101381.44;;;-0.45;67.98
21760;BME280;11041;50.854;20.580;2023-02-08T13:48:58;101389.34;;;-0.44;67.24
21760;BME280;11041;50.854;20.580;2023-02-08T13:56:45;101384.28;;;-0.38;68.14
21760;BME280;11041;50.854;20.580;2023-02-08T13:59:36;101385.09;;;-0.38;67.59
21760;BME280;11041;50.854;20.580;2023-02-08T14:04:50;101367.94;;;-0.45;67.28
21760;BME280;11041;50.854;20.580;2023-02-08T14:07:41;101389.13;;;-0.34;67.24
21760;BME280;11041;50.854;20.580;2023-02-08T14:10:40;101378.88;;;-0.38;67.55
21760;BME280;11041;50.854;20.580;2023-02-08T14:13:33;101364.88;;;-0.42;67.77
21760;BME280;11041;50.854;20.580;2023-02-08T14:16:30;101360.28;;;-0.41;67.22
21760;BME280;11041;50.854;20.580;2023-02-08T14:19:18;101366.91;;;-0.44;68.00
21760;BME280;11041;50.854;20.580;2023-02-08T14:24:47;101350.88;;;-0.46;67.75
21760;BME280;11041;50.854;20.580;2023-02-08T14:27:30;101369.91;;;-0.39;67.70
21760;BME280;11041;50.854;20.580;2023-02-08T14:30:29;101372.13;;;-0.43;67.86
21760;BME280;11041;50.854;20.580;2023-02-08T14:35:42;101362.28;;;-0.35;67.82
21760;BME280;11041;50.854;20.580;2023-02-08T14:40:51;101370.75;;;-0.38;66.97
21760;BME280;11041;50.854;20.580;2023-02-08T14:45:55;101368.59;;;-0.43;67.31
21760;BME280;11041;50.854;20.580;2023-02-08T14:48:31;101371.94;;;-0.41;67.49
21760;BME280;11041;50.854;20.580;2023-02-08T14:53:51;101377.16;;;-0.62;67.64
21760;BME280;11041;50.854;20.580;2023-02-08T14:56:34;101373.47;;;-0.70;67.50
21760;BME280;11041;50.854;20.580;2023-02-08T14:59:14;101378.53;;;-0.75;68.34
21760;BME280;11041;50.854;20.580;2023-02-08T15:01:56;101370.13;;;-0.80;68.22
21760;BME280;11041;50.854;20.580;2023-02-08T15:04:25;101377.44;;;-0.89;68.14
21760;BME280;11041;50.854;20.580;2023-02-08T15:07:16;101377.63;;;-0.90;68.26
21760;BME280;11041;50.854;20.580;2023-02-08T15:09:46;101378.13;;;-0.95;68.42
21760;BME280;11041;50.854;20.580;2023-02-08T15:12:32;101369.91;;;-1.01;68.82
21760;BME280;11041;50.854;20.580;2023-02-08T15:15:03;101368.91;;;-1.09;68.95